Time;durP1;ratioP1;P1;durP2;ratioP2;P2;SDS_P1;SDS_P2;PMS_P1;PMS_P2;Temp;Humidity;BMP_temperature;BMP_pressure;BME280_temperature;BME280_humidity;BME280_pressure;Samples;Min_cycle;Max_cycle;Signal;HPM_P1;HPM_P2
2023/04/23 00:01:43;;;;;;;6.82;3.58;;;11.80;99.90;;;;;;5098545;27;20413;-75
2023/04/23 00:04:13;;;;;;;4.70;3.63;;;11.80;99.90;;;;;;5061257;28;20470;-76
2023/04/23 00:06:42;;;;;;;5.13;3.60;;;11.70;99.90;;;;;;5098806;27;20409;-75
2023/04/23 00:09:10;;;;;;;5.82;3.90;;;11.70;99.90;;;;;;5109152;27;20798;-75
2023/04/23 00:11:37;;;;;;;6.88;4.10;;;11.70;99.90;;;;;;5076125;28;20403;-75
2023/04/23 00:14:03;;;;;;;6.03;4.10;;;11.70;99.90;;;;;;5081184;28;20411;-75
2023/04/23 00:16:30;;;;;;;5.43;4.10;;;11.70;99.90;;;;;;5112323;27;20404;-75
2023/04/23 00:18:56;;;;;;;7.60;3.93;;;11.80;99.90;;;;;;5096835;27;21159;-75
2023/04/23 00:21:22;;;;;;;6.90;3.97;;;11.80;99.90;;;;;;5078224;28;20937;-75
2023/04/23 00:23:49;;;;;;;5.72;3.78;;;11.80;99.90;;;;;;5106767;27;20426;-75
2023/04/23 00:26:17;;;;;;;7.13;4.50;;;11.70;99.90;;;;;;5084431;28;20431;-75
2023/04/23 00:28:43;;;;;;;7.57;4.22;;;11.80;99.90;;;;;;5108751;27;20410;-75
2023/04/23 00:31:09;;;;;;;8.13;4.05;;;11.90;99.90;;;;;;5067343;28;20805;-75
2023/04/23 00:33:36;;;;;;;6.67;3.93;;;11.90;99.90;;;;;;5059597;28;20409;-75
2023/04/23 00:36:03;;;;;;;6.35;4.40;;;11.90;99.90;;;;;;5095158;28;20415;-75
2023/04/23 00:38:29;;;;;;;8.93;4.45;;;12.00;99.90;;;;;;5076924;28;20413;-75
2023/04/23 00:40:55;;;;;;;7.40;4.03;;;12.00;99.90;;;;;;5092253;28;20413;-75
2023/04/23 00:43:22;;;;;;;9.65;4.47;;;11.80;99.90;;;;;;5105457;27;20415;-75
2023/04/23 00:45:49;;;;;;;7.63;4.22;;;11.80;99.90;;;;;;5079815;28;20772;-75
2023/04/23 00:48:16;;;;;;;8.15;4.18;;;11.90;99.90;;;;;;5096753;27;20421;-75
2023/04/23 00:50:42;;;;;;;7.68;4.15;;;11.90;99.90;;;;;;5107509;28;20416;-75
2023/04/23 00:53:09;;;;;;;7.07;4.10;;;11.90;99.90;;;;;;5095372;28;20498;-75
2023/04/23 00:55:35;;;;;;;6.93;4.03;;;11.90;99.90;;;;;;5110265;27;20403;-75
2023/04/23 00:58:02;;;;;;;5.60;3.95;;;11.90;99.90;;;;;;5095476;27;21180;-75
2023/04/23 01:00:29;;;;;;;5.97;3.80;;;11.90;99.90;;;;;;5104229;27;20927;-75
2023/04/23 01:02:57;;;;;;;6.50;4.03;;;11.80;99.90;;;;;;5111080;27;20410;-75
2023/04/23 01:05:23;;;;;;;7.05;3.97;;;11.90;99.90;;;;;;5108796;28;20790;-75
2023/04/23 01:07:50;;;;;;;7.90;4.30;;;11.90;99.90;;;;;;5086590;27;20401;-75
2023/04/23 01:10:17;;;;;;;8.07;4.20;;;12.00;99.90;;;;;;5102316;27;20414;-75
2023/04/23 01:12:43;;;;;;;6.57;4.10;;;12.00;99.90;;;;;;5092814;27;20551;-75
2023/04/23 01:15:09;;;;;;;6.00;4.07;;;12.00;99.90;;;;;;5109020;27;20508;-75
2023/04/23 01:17:37;;;;;;;7.68;4.32;;;12.00;99.90;;;;;;5102821;27;20408;-75
2023/04/23 01:20:05;;;;;;;11.17;4.23;;;12.00;99.90;;;;;;5097210;28;20415;-75
2023/04/23 01:22:35;;;;;;;6.70;4.25;;;12.10;99.90;;;;;;5079527;28;20764;-76
2023/04/23 01:25:03;;;;;;;7.03;4.50;;;12.10;99.90;;;;;;5122090;27;20412;-75
2023/04/23 01:27:30;;;;;;;7.05;4.82;;;12.10;99.90;;;;;;5105342;27;20874;-75
2023/04/23 01:29:57;;;;;;;8.00;4.50;;;12.20;99.90;;;;;;5105228;27;21117;-75
2023/04/23 01:32:24;;;;;;;6.97;4.68;;;12.20;99.90;;;;;;5102897;27;20468;-76
2023/04/23 01:34:52;;;;;;;7.00;4.55;;;12.30;99.90;;;;;;5090323;27;20405;-75
2023/04/23 01:37:20;;;;;;;8.18;4.78;;;12.20;99.90;;;;;;5110151;27;20410;-75
2023/04/23 01:39:46;;;;;;;8.05;4.82;;;12.20;99.90;;;;;;5106535;27;20454;-75
2023/04/23 01:42:12;;;;;;;7.75;4.72;;;12.20;99.90;;;;;;5101941;27;20409;-76
2023/04/23 01:44:39;;;;;;;7.10;4.57;;;12.30;99.90;;;;;;5085468;27;21173;-75
2023/04/23 01:47:06;;;;;;;7.35;4.60;;;12.30;99.90;;;;;;5103672;27;20407;-75
2023/04/23 01:49:32;;;;;;;6.30;4.67;;;12.30;99.90;;;;;;5084434;28;20395;-75
2023/04/23 01:51:58;;;;;;;7.18;4.47;;;12.20;99.90;;;;;;5089836;27;20425;-75
2023/04/23 01:54:25;;;;;;;8.85;4.70;;;12.20;99.90;;;;;;5087841;28;20403;-75
2023/04/23 01:56:53;;;;;;;6.82;4.70;;;12.20;99.90;;;;;;5106727;27;20412;-73
2023/04/23 01:59:21;;;;;;;6.45;5.00;;;12.20;99.90;;;;;;5084839;28;20413;-73
2023/04/23 02:01:49;;;;;;;7.57;4.60;;;12.20;99.90;;;;;;5119430;27;20416;-73
2023/04/23 02:04:16;;;;;;;6.97;4.38;;;12.30;99.90;;;;;;5098559;27;20885;-73
2023/04/23 02:06:46;;;;;;;5.65;4.07;;;12.30;99.90;;;;;;5101331;27;22190;-73
2023/04/23 02:09:13;;;;;;;6.88;4.65;;;12.30;99.90;;;;;;5103407;27;20465;-73
2023/04/23 02:11:40;;;;;;;7.57;4.60;;;12.20;99.90;;;;;;5107505;27;20412;-73
2023/04/23 02:14:09;;;;;;;5.72;4.03;;;12.20;99.90;;;;;;5070089;28;20420;-73
2023/04/23 02:16:36;;;;;;;7.10;4.32;;;12.20;99.90;;;;;;5093495;28;20509;-74
2023/04/23 02:19:02;;;;;;;4.80;4.00;;;12.20;99.90;;;;;;5081917;28;20420;-73
2023/04/23 02:21:29;;;;;;;4.80;3.70;;;12.20;99.90;;;;;;5102268;27;20908;-73
2023/04/23 02:23:55;;;;;;;6.73;3.80;;;12.20;99.90;;;;;;5103323;27;21017;-74
2023/04/23 02:26:21;;;;;;;4.32;3.20;;;12.20;99.90;;;;;;5096988;27;20408;-74
2023/04/23 02:28:48;;;;;;;6.07;3.40;;;12.10;99.90;;;;;;5099265;27;20460;-74
2023/04/23 02:31:15;;;;;;;3.80;2.90;;;12.00;99.90;;;;;;5094140;28;20416;-74
2023/04/23 02:33:42;;;;;;;4.15;2.83;;;12.00;99.90;;;;;;5076323;27;20446;-74
2023/04/23 02:36:10;;;;;;;3.65;2.80;;;11.90;99.90;;;;;;5078657;28;20416;-74
2023/04/23 02:38:36;;;;;;;3.07;2.47;;;11.90;99.90;;;;;;5079761;28;20417;-73
2023/04/23 02:41:03;;;;;;;3.58;2.65;;;11.70;99.90;;;;;;5098271;27;20842;-73
2023/04/23 02:43:29;;;;;;;3.90;2.45;;;11.80;99.90;;;;;;5061256;28;20416;-73
2023/04/23 02:45:55;;;;;;;3.30;2.50;;;11.60;99.90;;;;;;5099518;27;20904;-74
2023/04/23 02:48:22;;;;;;;4.88;2.70;;;11.50;99.90;;;;;;5093327;27;20419;-73
2023/04/23 02:50:48;;;;;;;3.05;2.20;;;11.40;99.90;;;;;;5086304;28;20467;-74
2023/04/23 02:53:17;;;;;;;3.40;2.20;;;11.30;99.90;;;;;;5098539;27;20803;-74
2023/04/23 02:55:43;;;;;;;3.60;2.30;;;11.20;99.90;;;;;;5093385;27;20427;-74
2023/04/23 02:58:09;;;;;;;3.30;2.40;;;11.20;99.90;;;;;;5076980;28;20412;-73
2023/04/23 03:00:35;;;;;;;4.23;2.30;;;11.20;99.90;;;;;;5081830;28;20912;-73
2023/04/23 03:03:01;;;;;;;3.88;2.60;;;11.20;99.90;;;;;;5078436;28;20503;-73
2023/04/23 03:05:28;;;;;;;3.30;2.20;;;11.20;99.90;;;;;;5095005;27;20402;-73
2023/04/23 03:07:54;;;;;;;2.75;2.10;;;11.10;99.90;;;;;;5094410;27;20408;-73
2023/04/23 03:10:20;;;;;;;3.35;2.25;;;11.00;99.90;;;;;;5095569;27;20408;-73
2023/04/23 03:12:47;;;;;;;4.00;2.50;;;11.00;99.90;;;;;;5095781;27;20835;-73
2023/04/23 03:15:13;;;;;;;4.13;2.30;;;11.10;99.90;;;;;;5089799;27;20884;-73
2023/04/23 03:17:39;;;;;;;4.53;2.40;;;11.10;99.90;;;;;;5066340;28;20404;-73
2023/04/23 03:20:09;;;;;;;4.23;2.40;;;11.10;99.90;;;;;;5081486;28;20496;-73
2023/04/23 03:22:35;;;;;;;2.63;2.28;;;11.20;99.90;;;;;;5074765;28;21109;-73
2023/04/23 03:25:02;;;;;;;3.57;2.57;;;11.20;99.90;;;;;;5085109;28;20925;-74
2023/04/23 03:27:29;;;;;;;3.38;2.30;;;11.20;99.90;;;;;;5094404;27;20622;-73
2023/04/23 03:29:55;;;;;;;2.90;2.45;;;11.20;99.90;;;;;;5094250;27;20414;-73
2023/04/23 03:32:21;;;;;;;3.20;2.30;;;11.20;99.90;;;;;;5080788;28;20927;-73
2023/04/23 03:34:47;;;;;;;3.63;2.40;;;11.20;99.90;;;;;;5090549;27;20456;-73
2023/04/23 03:37:13;;;;;;;3.95;2.30;;;11.20;99.90;;;;;;5080957;28;21204;-73
2023/04/23 03:39:40;;;;;;;3.40;2.40;;;11.20;99.90;;;;;;5081850;27;20786;-73
2023/04/23 03:42:06;;;;;;;3.30;2.17;;;11.20;99.90;;;;;;5086641;28;20507;-73
2023/04/23 03:44:32;;;;;;;2.72;2.38;;;11.20;99.90;;;;;;5094308;27;20417;-73
2023/04/23 03:46:58;;;;;;;3.10;2.40;;;11.20;99.90;;;;;;5096770;27;20422;-73
2023/04/23 03:49:26;;;;;;;3.10;2.20;;;11.30;99.90;;;;;;5079665;28;20410;-73
2023/04/23 03:51:52;;;;;;;3.70;2.60;;;11.20;99.90;;;;;;5067153;27;20987;-74
2023/04/23 03:54:18;;;;;;;2.58;2.00;;;11.30;99.90;;;;;;5083059;27;21098;-73
2023/04/23 03:56:45;;;;;;;3.40;2.60;;;11.20;99.90;;;;;;5107542;27;21011;-74
2023/04/23 03:59:11;;;;;;;3.22;2.40;;;11.20;99.90;;;;;;5090909;27;20423;-73
2023/04/23 04:01:37;;;;;;;3.72;2.38;;;11.20;99.90;;;;;;5091332;27;20419;-73
2023/04/23 04:04:03;;;;;;;3.05;2.20;;;11.20;99.90;;;;;;5070209;28;20495;-74
2023/04/23 04:06:30;;;;;;;3.35;2.25;;;11.30;99.90;;;;;;5093852;27;20414;-72
2023/04/23 04:08:56;;;;;;;3.28;2.53;;;11.30;99.90;;;;;;5087331;28;20420;-72
2023/04/23 04:11:22;;;;;;;4.43;2.60;;;11.30;99.90;;;;;;5089034;28;20420;-72
2023/04/23 04:13:49;;;;;;;2.92;2.30;;;11.40;99.90;;;;;;5109360;27;20406;-72
2023/04/23 04:16:15;;;;;;;3.75;2.30;;;11.20;99.90;;;;;;5078461;28;20412;-72
2023/04/23 04:18:41;;;;;;;2.75;2.28;;;11.00;99.90;;;;;;5074704;27;20968;-72
2023/04/23 04:21:07;;;;;;;2.58;2.20;;;11.00;99.90;;;;;;5092519;28;20757;-72
2023/04/23 04:23:34;;;;;;;3.08;2.38;;;11.10;99.90;;;;;;5072592;27;20417;-72
2023/04/23 04:26:01;;;;;;;3.70;2.20;;;11.10;99.90;;;;;;5092389;27;20406;-73
2023/04/23 04:28:27;;;;;;;4.18;2.20;;;11.00;99.90;;;;;;5086883;28;20463;-73
2023/04/23 04:30:56;;;;;;;2.90;2.27;;;11.00;99.90;;;;;;5096519;27;20486;-72
2023/04/23 04:33:24;;;;;;;3.40;2.00;;;11.00;99.90;;;;;;5065237;28;20492;-72
2023/04/23 04:35:51;;;;;;;2.92;2.00;;;11.00;99.90;;;;;;5053685;28;20417;-72
2023/04/23 04:38:17;;;;;;;3.70;2.42;;;11.00;99.90;;;;;;5095690;27;20426;-72
2023/04/23 04:40:44;;;;;;;2.33;2.13;;;11.00;99.90;;;;;;5092616;27;20462;-72
2023/04/23 04:43:10;;;;;;;2.97;2.00;;;11.10;99.90;;;;;;5089568;28;20421;-72
2023/04/23 04:45:37;;;;;;;3.15;1.90;;;11.20;99.90;;;;;;5074878;28;21050;-72
2023/04/23 04:48:03;;;;;;;2.47;2.20;;;11.30;99.90;;;;;;5087202;28;20760;-73
2023/04/23 04:50:29;;;;;;;2.53;2.20;;;11.40;99.90;;;;;;5074360;28;20833;-72
2023/04/23 04:52:56;;;;;;;3.90;2.45;;;11.60;99.90;;;;;;5087586;28;20976;-72
2023/04/23 04:55:22;;;;;;;2.95;2.60;;;11.70;99.90;;;;;;5085845;28;20414;-72
2023/04/23 04:57:48;;;;;;;3.08;2.70;;;11.80;99.90;;;;;;5104645;27;21955;-72
2023/04/23 05:00:26;;;;;;;3.63;2.50;;;12.00;99.90;;;;;;5091937;28;20408;-72
2023/04/23 05:02:53;;;;;;;3.42;2.58;;;12.10;99.90;;;;;;5077090;28;20421;-72
2023/04/23 05:05:22;;;;;;;2.65;2.30;;;12.20;99.90;;;;;;5091256;28;20454;-72
2023/04/23 05:07:49;;;;;;;3.03;2.23;;;12.30;99.90;;;;;;5095845;28;20932;-72
2023/04/23 05:10:16;;;;;;;2.70;2.40;;;12.30;99.90;;;;;;5082965;28;21008;-72
2023/04/23 05:12:43;;;;;;;4.40;2.60;;;12.40;99.90;;;;;;5075874;28;20408;-72
2023/04/23 05:15:12;;;;;;;4.30;2.40;;;12.40;99.90;;;;;;5086092;28;20444;-72
2023/04/23 05:17:42;;;;;;;4.35;2.60;;;12.50;99.90;;;;;;5106019;28;20922;-72
2023/04/23 05:20:09;;;;;;;4.28;2.80;;;12.50;99.90;;;;;;5092946;28;20834;-73
2023/04/23 05:22:42;;;;;;;3.33;2.70;;;12.60;99.90;;;;;;5072327;28;20475;-72
2023/04/23 05:25:14;;;;;;;4.55;2.80;;;12.70;99.90;;;;;;5095421;28;20545;-72
2023/04/23 05:27:40;;;;;;;5.35;3.13;;;12.80;99.90;;;;;;5104650;28;20582;-72
2023/04/23 05:30:10;;;;;;;3.78;2.50;;;12.80;99.90;;;;;;5081248;28;21184;-72
2023/04/23 05:32:37;;;;;;;3.92;2.80;;;12.90;99.90;;;;;;5084915;28;20414;-72
2023/04/23 05:35:04;;;;;;;4.22;2.47;;;13.00;99.90;;;;;;5083078;28;20493;-72
2023/04/23 05:37:31;;;;;;;3.30;2.80;;;13.00;99.90;;;;;;5093595;28;20410;-72
2023/04/23 05:39:58;;;;;;;3.63;2.80;;;13.10;99.90;;;;;;5094106;28;20441;-72
2023/04/23 05:42:24;;;;;;;3.50;2.58;;;13.10;99.90;;;;;;5093295;27;20416;-72
2023/04/23 05:44:51;;;;;;;2.97;2.50;;;13.20;99.90;;;;;;5114558;27;20736;-72
2023/04/23 05:47:17;;;;;;;4.55;2.60;;;13.30;99.90;;;;;;5084895;28;20789;-72
2023/04/23 05:49:43;;;;;;;3.92;2.70;;;13.30;99.90;;;;;;5098817;27;20402;-72
2023/04/23 05:52:10;;;;;;;4.27;2.70;;;13.50;99.90;;;;;;5080815;28;21113;-72
2023/04/23 05:54:36;;;;;;;4.68;2.70;;;13.60;99.90;;;;;;5099365;27;20792;-72
2023/04/23 05:57:03;;;;;;;3.35;2.45;;;13.60;99.90;;;;;;5102437;27;20483;-72
2023/04/23 05:59:30;;;;;;;4.30;2.58;;;13.60;99.90;;;;;;5082353;28;20412;-72
2023/04/23 06:01:57;;;;;;;3.70;2.50;;;13.70;99.90;;;;;;5097136;28;20412;-72
2023/04/23 06:04:23;;;;;;;3.60;2.22;;;13.70;99.90;;;;;;5093605;27;20408;-73
2023/04/23 06:06:49;;;;;;;3.95;2.20;;;13.80;99.90;;;;;;5082095;27;20408;-72
2023/04/23 06:09:15;;;;;;;3.78;2.22;;;13.90;99.90;;;;;;5105648;27;20507;-72
2023/04/23 06:11:42;;;;;;;3.20;1.88;;;14.00;99.90;;;;;;5098105;27;20456;-76
2023/04/23 06:14:08;;;;;;;3.37;1.80;;;14.10;99.90;;;;;;5086168;28;20776;-76
2023/04/23 06:16:34;;;;;;;2.28;1.90;;;14.20;99.90;;;;;;5080721;28;20947;-75
2023/04/23 06:19:03;;;;;;;2.88;2.10;;;14.30;99.90;;;;;;5097413;27;20461;-76
2023/04/23 06:21:29;;;;;;;3.73;2.10;;;14.30;99.90;;;;;;5077127;28;20440;-75
2023/04/23 06:23:55;;;;;;;3.38;2.13;;;14.40;99.90;;;;;;5090531;28;20421;-76
2023/04/23 06:26:21;;;;;;;2.50;1.80;;;14.50;99.90;;;;;;5086959;28;20461;-75
2023/04/23 06:28:47;;;;;;;4.00;1.95;;;14.60;99.90;;;;;;5097913;27;20947;-75
2023/04/23 06:31:14;;;;;;;3.03;2.10;;;14.80;99.90;;;;;;5098543;27;20940;-76
2023/04/23 06:33:40;;;;;;;2.83;1.90;;;14.80;99.90;;;;;;5085173;28;20410;-76
2023/04/23 06:36:10;;;;;;;2.75;2.00;;;15.00;99.90;;;;;;5085002;27;20516;-76
2023/04/23 06:38:37;;;;;;;2.87;1.97;;;15.00;99.90;;;;;;5060227;28;21006;-76
2023/04/23 06:41:04;;;;;;;2.35;1.70;;;15.10;99.90;;;;;;5078601;28;20766;-76
2023/04/23 06:43:31;;;;;;;2.25;1.88;;;15.20;99.90;;;;;;5065772;27;20806;-76
2023/04/23 06:45:57;;;;;;;2.42;1.85;;;15.20;99.90;;;;;;5097891;28;21195;-75
2023/04/23 06:48:25;;;;;;;2.30;1.80;;;15.30;99.90;;;;;;5101964;27;20408;-76
2023/04/23 06:50:51;;;;;;;2.28;1.65;;;15.40;99.90;;;;;;5083233;27;20459;-76
2023/04/23 06:53:18;;;;;;;2.67;1.92;;;15.40;99.90;;;;;;5092639;27;20486;-76
2023/04/23 06:55:44;;;;;;;3.17;1.95;;;15.50;99.90;;;;;;5081662;27;20489;-75
2023/04/23 06:58:10;;;;;;;3.57;1.90;;;15.70;99.90;;;;;;5091876;28;20405;-76
2023/04/23 07:00:36;;;;;;;2.70;1.90;;;15.70;99.90;;;;;;5080327;28;20516;-76
2023/04/23 07:03:03;;;;;;;4.80;1.70;;;15.80;99.90;;;;;;5098307;27;20575;-76
2023/04/23 07:05:29;;;;;;;4.30;1.95;;;15.90;99.90;;;;;;5096077;27;20401;-76
2023/04/23 07:07:55;;;;;;;3.00;1.90;;;15.90;99.90;;;;;;5095080;27;20953;-75
2023/04/23 07:10:22;;;;;;;2.80;1.90;;;16.00;99.90;;;;;;5091687;27;20823;-76
2023/04/23 07:13:15;;;;;;;3.33;1.90;;;16.10;99.90;;;;;;5082365;28;20407;-76
2023/04/23 07:15:42;;;;;;;2.03;1.67;;;16.30;99.90;;;;;;5099178;27;20400;-75
2023/04/23 07:18:09;;;;;;;4.20;1.70;;;16.40;99.90;;;;;;5106409;27;20421;-75
2023/04/23 07:20:35;;;;;;;2.55;1.77;;;16.40;99.90;;;;;;5092117;28;20421;-76
2023/04/23 07:23:02;;;;;;;2.17;1.77;;;16.50;99.90;;;;;;5081563;27;20767;-76
2023/04/23 07:25:30;;;;;;;2.70;1.80;;;16.70;99.90;;;;;;5095754;28;20410;-76
2023/04/23 07:27:57;;;;;;;2.83;1.80;;;16.90;99.90;;;;;;5055342;28;20406;-76
2023/04/23 07:30:26;;;;;;;3.97;1.70;;;16.90;99.90;;;;;;5093538;27;21110;-76
2023/04/23 07:32:52;;;;;;;2.42;1.70;;;17.00;99.90;;;;;;5079463;28;20442;-76
2023/04/23 07:35:19;;;;;;;1.92;1.50;;;17.20;99.90;;;;;;5097084;27;20421;-76
2023/04/23 07:37:45;;;;;;;2.00;1.73;;;17.30;99.90;;;;;;5087253;28;21054;-76
2023/04/23 07:40:13;;;;;;;3.22;2.13;;;17.40;99.90;;;;;;5075476;28;20780;-76
2023/04/23 07:42:39;;;;;;;3.30;2.00;;;17.50;99.90;;;;;;5063185;28;20412;-76
2023/04/23 07:45:06;;;;;;;5.35;2.00;;;17.70;99.90;;;;;;5095735;27;21394;-76
2023/04/23 07:47:32;;;;;;;3.75;2.00;;;17.70;99.90;;;;;;5086356;28;20437;-76
2023/04/23 07:49:58;;;;;;;3.07;1.90;;;17.80;99.90;;;;;;5089807;28;20457;-76
2023/04/23 07:52:25;;;;;;;2.78;1.63;;;17.80;99.90;;;;;;5094188;28;20912;-76
2023/04/23 07:54:51;;;;;;;2.22;1.60;;;18.00;99.90;;;;;;5090500;27;20909;-76
2023/04/23 07:57:18;;;;;;;2.00;1.30;;;18.00;99.90;;;;;;5098036;27;20413;-76
2023/04/23 07:59:44;;;;;;;2.55;1.50;;;18.00;99.90;;;;;;5092886;28;20436;-76
2023/04/23 08:02:10;;;;;;;2.63;1.60;;;18.10;99.90;;;;;;5089246;28;20487;-76
2023/04/23 08:04:37;;;;;;;1.60;1.40;;;18.20;99.90;;;;;;5085912;28;20910;-76
2023/04/23 08:07:03;;;;;;;1.77;1.35;;;18.20;99.90;;;;;;5080107;28;20935;-76
2023/04/23 08:09:30;;;;;;;3.33;1.60;;;18.30;99.90;;;;;;5096381;27;20408;-76
2023/04/23 08:11:56;;;;;;;3.38;1.77;;;18.40;99.90;;;;;;5095493;28;20415;-76
2023/04/23 08:14:22;;;;;;;4.30;2.05;;;18.60;99.90;;;;;;5080356;28;20421;-76
2023/04/23 08:16:49;;;;;;;2.90;2.33;;;18.80;99.90;;;;;;5098043;27;20400;-76
2023/04/23 08:19:15;;;;;;;3.75;2.10;;;18.90;99.90;;;;;;5090220;28;20421;-76
2023/04/23 08:21:42;;;;;;;3.38;2.00;;;18.90;99.90;;;;;;5092770;28;20413;-76
2023/04/23 08:24:08;;;;;;;2.57;2.20;;;18.90;99.90;;;;;;5093696;28;20416;-76
2023/04/23 08:26:34;;;;;;;2.47;2.00;;;18.90;99.90;;;;;;5096779;28;20415;-76
2023/04/23 08:29:01;;;;;;;4.68;2.33;;;19.00;99.90;;;;;;5096070;27;20425;-76
2023/04/23 08:31:28;;;;;;;4.20;2.30;;;19.00;99.90;;;;;;5081082;28;20898;-76
2023/04/23 08:33:55;;;;;;;4.25;2.40;;;19.10;99.90;;;;;;5069897;28;20407;-76
2023/04/23 08:36:22;;;;;;;4.00;2.40;;;19.10;99.90;;;;;;5077133;28;20410;-76
2023/04/23 08:38:48;;;;;;;3.95;2.30;;;19.00;99.90;;;;;;5080715;28;20407;-76
2023/04/23 08:41:21;;;;;;;2.70;2.00;;;19.00;99.90;;;;;;5080828;28;20412;-76
2023/04/23 08:44:16;;;;;;;3.72;2.08;;;19.00;99.90;;;;;;5103053;27;20787;-76
2023/04/23 08:46:44;;;;;;;2.78;2.10;;;19.00;99.90;;;;;;5095305;27;20559;-76
2023/04/23 08:49:17;;;;;;;3.07;2.13;;;19.10;99.90;;;;;;5106574;28;20405;-76
2023/04/23 08:51:51;;;;;;;3.38;2.10;;;19.10;99.90;;;;;;5092529;27;20507;-76
2023/04/23 08:54:29;;;;;;;2.85;1.90;;;19.20;99.90;;;;;;5093342;28;20932;-76
2023/04/23 08:56:57;;;;;;;3.30;2.10;;;19.40;99.90;;;;;;5090139;28;20414;-76
2023/04/23 08:59:25;;;;;;;4.60;2.42;;;19.50;99.90;;;;;;5079106;28;20408;-76
2023/04/23 09:01:53;;;;;;;4.90;2.33;;;19.70;99.90;;;;;;5075246;28;21056;-76
2023/04/23 09:04:20;;;;;;;3.63;2.22;;;19.80;99.90;;;;;;5069222;28;20500;-76
2023/04/23 09:06:46;;;;;;;3.42;2.17;;;19.80;99.90;;;;;;5094939;28;20771;-76
2023/04/23 09:09:18;;;;;;;3.72;2.42;;;19.90;99.90;;;;;;5078176;28;20802;-76
2023/04/23 09:11:45;;;;;;;4.87;2.30;;;20.00;99.90;;;;;;5094271;28;20437;-76
2023/04/23 09:14:13;;;;;;;3.67;2.20;;;20.10;99.90;;;;;;5095224;28;20433;-76
2023/04/23 09:16:41;;;;;;;3.88;2.42;;;20.20;99.90;;;;;;5084283;28;20435;-76
2023/04/23 09:19:10;;;;;;;4.00;2.25;;;20.30;99.90;;;;;;5082905;27;20431;-76
2023/04/23 09:21:41;;;;;;;3.28;2.38;;;20.40;99.90;;;;;;5077723;27;20906;-76
2023/04/23 09:24:13;;;;;;;6.35;2.50;;;20.50;99.90;;;;;;5099437;27;20418;-76
2023/04/23 09:26:50;;;;;;;2.92;2.20;;;20.50;99.90;;;;;;5084782;27;20413;-76
2023/04/23 09:29:22;;;;;;;3.85;2.30;;;20.50;99.90;;;;;;5081329;28;20407;-76
2023/04/23 09:31:55;;;;;;;3.15;2.20;;;20.50;99.90;;;;;;5082939;27;20412;-76
2023/04/23 09:34:23;;;;;;;3.33;2.13;;;20.70;99.90;;;;;;5095073;28;20415;-76
2023/04/23 09:36:52;;;;;;;3.15;2.08;;;20.90;99.90;;;;;;5096100;27;20812;-76
2023/04/23 09:39:23;;;;;;;4.65;2.20;;;20.90;99.90;;;;;;5076255;28;20508;-76
2023/04/23 09:41:52;;;;;;;3.10;1.90;;;21.00;99.90;;;;;;5095806;28;20774;-76
2023/04/23 09:44:25;;;;;;;3.20;2.10;;;21.10;99.90;;;;;;5084330;28;20411;-76
2023/04/23 09:46:51;;;;;;;3.80;1.90;;;21.30;99.90;;;;;;5080603;28;21218;-76
2023/04/23 09:49:18;;;;;;;3.00;1.88;;;21.30;99.90;;;;;;5087102;28;20404;-76
2023/04/23 09:51:48;;;;;;;3.47;1.77;;;21.40;99.90;;;;;;5096886;27;20426;-76
2023/04/23 09:54:23;;;;;;;3.10;1.90;;;21.50;99.90;;;;;;5087575;28;20406;-76
2023/04/23 09:56:55;;;;;;;2.57;2.00;;;21.60;99.90;;;;;;5079235;28;20413;-76
2023/04/23 09:59:30;;;;;;;3.88;2.30;;;21.80;99.90;;;;;;5083562;28;20412;-76
2023/04/23 10:02:02;;;;;;;4.60;2.30;;;21.90;99.90;;;;;;5065829;27;20467;-76
2023/04/23 10:04:28;;;;;;;6.80;2.28;;;21.90;99.90;;;;;;5092064;27;20418;-76
2023/04/23 10:07:00;;;;;;;5.87;2.60;;;21.80;99.90;;;;;;5076342;27;20953;-76
2023/04/23 10:09:28;;;;;;;3.70;2.13;;;21.80;99.90;;;;;;5080866;28;20418;-76
2023/04/23 10:12:03;;;;;;;3.20;2.00;;;22.00;99.90;;;;;;5092699;28;20413;-76
2023/04/23 10:14:30;;;;;;;3.67;1.90;;;22.10;99.90;;;;;;5077002;28;20780;-77
2023/04/23 10:17:00;;;;;;;4.82;2.22;;;22.10;99.90;;;;;;5095390;27;20412;-76
2023/04/23 10:19:28;;;;;;;2.25;1.80;;;22.20;99.90;;;;;;5098462;27;20831;-73
2023/04/23 10:22:06;;;;;;;3.22;1.90;;;22.20;99.90;;;;;;5097702;27;20412;-73
2023/04/23 10:24:39;;;;;;;2.50;2.00;;;22.00;99.90;;;;;;5114327;27;20418;-73
2023/04/23 10:27:12;;;;;;;4.18;1.95;;;22.10;99.90;;;;;;5081852;28;20413;-73
2023/04/23 10:29:40;;;;;;;3.53;2.00;;;22.20;99.90;;;;;;5078665;27;20496;-72
2023/04/23 10:32:07;;;;;;;2.20;1.80;;;22.20;99.90;;;;;;5093949;27;20437;-73
2023/04/23 10:34:33;;;;;;;2.45;1.73;;;22.10;99.90;;;;;;5087505;28;20831;-73
2023/04/23 10:37:01;;;;;;;3.10;1.80;;;22.00;99.90;;;;;;5085994;27;20434;-73
2023/04/23 10:39:35;;;;;;;1.77;1.50;;;22.00;99.90;;;;;;5099083;27;20454;-73
2023/04/23 10:42:03;;;;;;;2.92;1.80;;;21.90;99.90;;;;;;5085704;27;20459;-73
2023/04/23 10:44:38;;;;;;;3.53;2.00;;;22.00;99.90;;;;;;5083422;28;20414;-73
2023/04/23 10:47:05;;;;;;;2.95;1.70;;;22.10;99.90;;;;;;5086450;28;20414;-73
2023/04/23 10:49:33;;;;;;;3.30;2.05;;;22.00;99.90;;;;;;5081776;28;20398;-73
2023/04/23 10:52:06;;;;;;;3.92;1.88;;;22.00;99.90;;;;;;5080190;27;20770;-73
2023/04/23 10:54:35;;;;;;;3.97;2.10;;;22.00;99.90;;;;;;5081326;28;20440;-73
2023/04/23 10:57:04;;;;;;;4.40;2.10;;;22.00;99.90;;;;;;5062476;28;20528;-73
2023/04/23 10:59:37;;;;;;;5.20;2.20;;;22.00;99.90;;;;;;5078032;28;20481;-73
2023/04/23 11:02:11;;;;;;;3.78;2.03;;;21.90;99.90;;;;;;5092850;28;20445;-73
2023/04/23 11:04:47;;;;;;;3.72;1.80;;;21.70;99.90;;;;;;5096723;27;20420;-72
2023/04/23 11:07:17;;;;;;;4.10;2.10;;;21.60;99.90;;;;;;5092904;28;20517;-73
2023/04/23 11:09:46;;;;;;;4.00;2.10;;;21.80;99.90;;;;;;5078744;27;20425;-73
2023/04/23 11:12:19;;;;;;;5.60;2.38;;;21.70;99.90;;;;;;5069402;28;20404;-73
2023/04/23 11:14:49;;;;;;;5.63;2.35;;;21.70;99.90;;;;;;5080412;27;20407;-73
2023/04/23 11:17:37;;;;;;;6.53;2.20;;;21.60;99.90;;;;;;5074870;27;20470;-73
2023/04/23 11:20:15;;;;;;;4.30;2.13;;;21.70;99.90;;;;;;5098190;27;20465;-73
2023/04/23 11:22:46;;;;;;;4.07;2.30;;;21.70;99.90;;;;;;5087357;27;20417;-73
2023/04/23 11:25:22;;;;;;;4.88;2.40;;;21.80;99.90;;;;;;5091353;28;20462;-73
2023/04/23 11:27:51;;;;;;;4.30;2.05;;;21.60;99.90;;;;;;5109764;27;20409;-73
2023/04/23 11:30:20;;;;;;;5.00;2.53;;;21.70;99.90;;;;;;5082749;28;20419;-73
2023/04/23 11:32:50;;;;;;;6.07;2.87;;;21.60;99.90;;;;;;5100640;28;20408;-72
2023/04/23 11:35:19;;;;;;;4.32;2.60;;;21.40;99.90;;;;;;5097783;28;20416;-73
2023/04/23 11:37:48;;;;;;;3.85;2.60;;;21.30;99.90;;;;;;5083794;27;20435;-73
2023/04/23 11:40:20;;;;;;;5.45;2.88;;;21.30;99.90;;;;;;5094155;28;20448;-73
2023/04/23 11:42:54;;;;;;;6.10;2.90;;;21.40;99.90;;;;;;5097634;28;20726;-73
2023/04/23 11:45:25;;;;;;;6.88;2.58;;;21.30;99.90;;;;;;5079876;28;20414;-73
2023/04/23 11:47:59;;;;;;;4.28;2.50;;;21.30;99.90;;;;;;5096602;27;20406;-73
2023/04/23 11:50:29;;;;;;;3.50;2.15;;;21.20;99.90;;;;;;5092883;28;20415;-73
2023/04/23 11:52:56;;;;;;;6.93;2.60;;;21.20;99.90;;;;;;5066269;27;20831;-73
2023/04/23 11:55:23;;;;;;;6.07;3.00;;;21.20;99.90;;;;;;5059953;28;20408;-73
2023/04/23 11:57:51;;;;;;;5.03;2.63;;;21.10;99.90;;;;;;5091549;28;20455;-73
2023/04/23 12:00:23;;;;;;;5.88;2.50;;;21.10;99.90;;;;;;5095922;27;20416;-73
2023/04/23 12:02:58;;;;;;;4.90;2.03;;;21.20;99.90;;;;;;5098504;28;21177;-73
2023/04/23 12:05:34;;;;;;;4.53;1.98;;;21.40;99.90;;;;;;5092008;28;20440;-73
2023/04/23 12:08:16;;;;;;;3.80;2.00;;;21.60;99.90;;;;;;5082058;28;20421;-73
2023/04/23 12:10:48;;;;;;;2.90;1.93;;;21.60;99.90;;;;;;5108658;27;20418;-72
2023/04/23 12:13:24;;;;;;;5.10;1.97;;;21.70;99.90;;;;;;5095027;28;20499;-73
2023/04/23 12:15:59;;;;;;;2.80;1.90;;;21.80;99.90;;;;;;5074360;28;20767;-73
2023/04/23 12:18:41;;;;;;;7.70;2.28;;;21.60;99.90;;;;;;5057740;28;20493;-73
2023/04/23 12:21:14;;;;;;;4.10;2.13;;;21.70;99.90;;;;;;5080005;27;20407;-73
2023/04/23 12:23:43;;;;;;;3.13;1.98;;;21.90;99.90;;;;;;5075275;28;20414;-73
2023/04/23 12:26:15;;;;;;;3.15;1.70;;;21.80;99.90;;;;;;5079155;28;21726;-73
2023/04/23 12:28:54;;;;;;;3.83;1.90;;;21.60;99.90;;;;;;5078874;27;20834;-73
2023/04/23 12:31:24;;;;;;;3.58;2.15;;;21.70;99.90;;;;;;5100236;27;20452;-73
2023/04/23 12:34:09;;;;;;;2.70;1.90;;;21.70;99.90;;;;;;5077525;28;20408;-73
2023/04/23 12:36:39;;;;;;;3.72;1.88;;;21.50;99.90;;;;;;5094929;28;20418;-73
2023/04/23 12:39:44;;;;;;;6.22;2.05;;;21.50;99.90;;;;;;5091211;27;20447;-73
2023/04/23 12:42:11;;;;;;;4.10;2.10;;;21.50;99.90;;;;;;5056938;28;20416;-73
2023/04/23 12:44:38;;;;;;;4.18;2.03;;;21.50;99.90;;;;;;5043014;28;20470;-73
2023/04/23 12:47:10;;;;;;;4.53;1.85;;;21.50;99.90;;;;;;5073968;28;20408;-73
2023/04/23 12:49:39;;;;;;;3.75;2.17;;;21.50;99.90;;;;;;5095164;27;20413;-73
2023/04/23 12:52:07;;;;;;;3.45;2.03;;;21.40;99.90;;;;;;5108880;27;20392;-73
2023/04/23 12:54:36;;;;;;;4.68;1.90;;;21.50;99.90;;;;;;5111122;27;20507;-73